createdAt,value
2018-09-17T00:00:14.540Z,3.17
2018-09-17T00:02:52.890Z,4.20
2018-09-17T00:05:28.438Z,3.90
2018-09-17T00:08:02.594Z,3.87
2018-09-17T00:10:38.136Z,5.50
2018-09-17T00:13:17.881Z,3.43
2018-09-17T00:15:53.644Z,5.30
2018-09-17T00:18:28.781Z,4.10
2018-09-17T00:21:03.791Z,3.37
2018-09-17T00:23:37.901Z,4.50
2018-09-17T00:26:12.405Z,4.00
2018-09-17T00:28:48.054Z,5.53
2018-09-17T00:31:26.356Z,2.60
2018-09-17T00:36:48.300Z,3.80
2018-09-17T00:39:23.904Z,4.90
2018-09-17T00:41:58.598Z,5.93
2018-09-17T00:44:32.566Z,5.50
2018-09-17T00:47:06.565Z,3.80
2018-09-17T00:49:41.964Z,3.80
2018-09-17T00:52:17.663Z,5.70
2018-09-17T00:54:51.498Z,4.30
2018-09-17T00:57:25.765Z,3.77
2018-09-17T01:00:00.641Z,4.00
2018-09-17T01:02:35.991Z,4.20
2018-09-17T01:05:12.338Z,4.77
2018-09-17T01:07:49.349Z,3.67
2018-09-17T01:10:26.017Z,2.30
2018-09-17T01:13:00.626Z,4.10
2018-09-17T01:15:46.233Z,5.50
2018-09-17T01:18:20.756Z,3.47
2018-09-17T01:20:58.073Z,3.97
2018-09-17T01:23:33.220Z,2.07
2018-09-17T01:26:07.502Z,2.40
2018-09-17T01:28:52.038Z,5.80
2018-09-17T01:31:26.448Z,4.77
2018-09-17T01:36:47.252Z,4.33
2018-09-17T01:39:21.733Z,2.53
2018-09-17T01:42:01.119Z,3.53
2018-09-17T01:44:35.563Z,3.97
2018-09-17T01:47:10.008Z,4.63
2018-09-17T01:49:44.713Z,5.30
2018-09-17T01:52:19.599Z,3.53
2018-09-17T01:54:55.620Z,4.50
2018-09-17T01:57:29.905Z,7.00
2018-09-17T02:00:05.602Z,2.80
2018-09-17T02:02:40.913Z,3.53
2018-09-17T02:05:17.276Z,2.10
2018-09-17T02:07:53.541Z,5.03
2018-09-17T02:10:41.295Z,2.63
2018-09-17T02:13:17.015Z,4.13
2018-09-17T02:15:52.155Z,4.73
2018-09-17T02:18:27.189Z,3.53
2018-09-17T02:21:08.535Z,2.97
2018-09-17T02:26:30.863Z,1.87
2018-09-17T02:31:58.007Z,2.30
2018-09-17T02:37:28.002Z,3.77
2018-09-17T02:40:04.264Z,2.07
2018-09-17T02:43:14.686Z,2.67
2018-09-17T02:45:49.822Z,2.87
2018-09-17T02:48:36.240Z,2.77
2018-09-17T02:51:11.889Z,3.10
2018-09-17T02:54:34.624Z,4.33
2018-09-17T02:57:09.238Z,3.07
2018-09-17T02:59:44.985Z,1.43
2018-09-17T03:02:19.500Z,2.43
2018-09-17T03:04:53.917Z,1.17
2018-09-17T03:07:29.041Z,2.57
2018-09-17T03:10:03.011Z,2.10
2018-09-17T03:12:37.269Z,1.30
2018-09-17T03:15:17.201Z,3.03
2018-09-17T03:17:51.260Z,2.13
2018-09-17T03:20:25.601Z,1.90
2018-09-17T03:23:05.216Z,2.37
2018-09-17T03:25:40.248Z,2.07
2018-09-17T03:28:29.610Z,3.40
2018-09-17T03:31:04.440Z,3.73
2018-09-17T03:33:39.816Z,2.67
2018-09-17T03:41:53.541Z,2.17
2018-09-17T03:44:28.788Z,2.57
2018-09-17T03:50:06.072Z,2.93
2018-09-17T03:55:45.614Z,2.17
2018-09-17T03:58:20.241Z,2.60
2018-09-17T04:12:49.642Z,2.00
2018-09-17T04:15:26.786Z,2.63
2018-09-17T04:20:48.118Z,5.70
2018-09-17T04:23:38.240Z,3.60
2018-09-17T04:26:14.256Z,3.00
2018-09-17T04:28:48.898Z,3.13
2018-09-17T04:31:23.536Z,2.67
2018-09-17T04:33:58.151Z,3.40
2018-09-17T04:36:32.442Z,2.93
2018-09-17T04:39:07.607Z,3.93
2018-09-17T04:41:41.830Z,2.13
2018-09-17T04:44:16.589Z,1.60
2018-09-17T04:46:51.029Z,4.13
2018-09-17T04:49:25.903Z,2.13
2018-09-17T04:51:59.926Z,2.40
2018-09-17T04:54:34.751Z,2.00
2018-09-17T04:57:10.231Z,4.27
2018-09-17T04:59:45.035Z,2.73
2018-09-17T05:02:19.252Z,2.60
2018-09-17T05:04:54.247Z,3.03
2018-09-17T05:07:29.032Z,2.63
2018-09-17T05:10:03.080Z,2.20
2018-09-17T05:12:37.221Z,2.77
2018-09-17T05:15:11.071Z,3.27
2018-09-17T05:17:45.692Z,3.00
2018-09-17T05:20:23.966Z,2.40
2018-09-17T05:22:58.296Z,2.03
2018-09-17T05:25:40.046Z,4.17
2018-09-17T05:28:14.301Z,3.00
2018-09-17T05:30:48.469Z,4.77
2018-09-17T05:33:22.557Z,1.80
2018-09-17T05:35:58.311Z,3.00
2018-09-17T05:38:32.345Z,3.80
2018-09-17T05:41:07.171Z,3.27
2018-09-17T05:43:41.552Z,3.33
2018-09-17T05:46:16.492Z,2.17
2018-09-17T05:48:50.422Z,2.90
2018-09-17T05:51:24.294Z,4.00
2018-09-17T05:53:58.314Z,3.53
2018-09-17T05:56:33.036Z,8.30
2018-09-17T05:59:07.094Z,2.87
2018-09-17T06:01:41.858Z,2.77
2018-09-17T06:04:15.745Z,3.10
2018-09-17T06:06:49.900Z,3.17
2018-09-17T06:09:23.903Z,1.57
2018-09-17T06:11:57.951Z,3.17
2018-09-17T06:14:32.292Z,3.63
2018-09-17T06:17:07.017Z,3.33
2018-09-17T06:19:41.178Z,4.80
2018-09-17T06:22:16.294Z,6.07
2018-09-17T06:24:50.936Z,5.17
2018-09-17T06:27:24.814Z,4.67
2018-09-17T06:29:59.508Z,5.57
2018-09-17T06:32:33.543Z,4.97
2018-09-17T06:35:07.500Z,7.17
2018-09-17T06:37:41.518Z,5.00
2018-09-17T06:40:15.897Z,5.67
2018-09-17T06:42:50.033Z,5.23
2018-09-17T06:45:24.835Z,4.67
2018-09-17T06:47:58.895Z,6.53
2018-09-17T06:50:36.013Z,4.43
2018-09-17T06:53:10.640Z,6.70
2018-09-17T06:55:45.612Z,3.67
2018-09-17T06:58:19.746Z,7.03
2018-09-17T07:00:55.576Z,7.00
2018-09-17T07:03:31.310Z,8.40
2018-09-17T07:06:06.176Z,8.13
2018-09-17T07:08:40.051Z,5.40
2018-09-17T07:11:14.150Z,13.37
2018-09-17T07:13:48.382Z,6.77
2018-09-17T07:16:22.491Z,10.33
2018-09-17T07:18:56.454Z,9.00
2018-09-17T07:21:31.098Z,9.37
2018-09-17T07:24:05.334Z,7.90
2018-09-17T07:26:40.422Z,8.60
2018-09-17T07:29:14.358Z,7.77
2018-09-17T07:31:48.222Z,8.80
2018-09-17T07:34:23.073Z,10.47
2018-09-17T07:36:57.069Z,7.87
2018-09-17T07:39:31.968Z,9.03
2018-09-17T07:42:06.122Z,9.90
2018-09-17T07:44:40.212Z,9.10
2018-09-17T07:47:14.095Z,10.53
2018-09-17T07:49:48.683Z,7.50
2018-09-17T07:52:22.646Z,6.33
2018-09-17T07:54:56.646Z,7.93
2018-09-17T07:57:31.112Z,9.83
2018-09-17T08:00:05.731Z,10.17
2018-09-17T08:02:40.423Z,8.87
2018-09-17T08:05:15.309Z,10.10
2018-09-17T08:07:50.006Z,7.33
2018-09-17T08:10:25.215Z,8.13
2018-09-17T08:12:59.358Z,8.00
2018-09-17T08:15:33.390Z,8.67
2018-09-17T08:18:07.402Z,10.87
2018-09-17T08:20:41.583Z,9.63
2018-09-17T08:23:15.625Z,6.73
2018-09-17T08:25:49.842Z,9.63
2018-09-17T08:28:24.636Z,8.67
2018-09-17T08:30:58.792Z,8.70
2018-09-17T08:33:33.074Z,8.33
2018-09-17T08:36:07.639Z,6.83
2018-09-17T08:38:41.500Z,8.43
2018-09-17T08:41:16.574Z,8.57
2018-09-17T08:43:51.060Z,8.70
2018-09-17T08:46:25.564Z,10.63
2018-09-17T08:48:59.646Z,7.10
2018-09-17T08:51:33.627Z,8.43
2018-09-17T08:54:08.361Z,8.13
2018-09-17T08:56:48.264Z,11.73
2018-09-17T08:59:27.666Z,9.97
2018-09-17T09:02:06.874Z,9.57
2018-09-17T09:04:46.411Z,7.80
2018-09-17T09:07:25.936Z,9.97
2018-09-17T09:10:05.080Z,8.83
2018-09-17T09:12:39.194Z,7.37
2018-09-17T09:15:18.807Z,7.57
2018-09-17T09:17:52.842Z,5.03
2018-09-17T09:20:27.340Z,7.43
2018-09-17T09:23:01.965Z,6.70
2018-09-17T09:25:36.076Z,8.20
2018-09-17T09:28:09.763Z,8.00
2018-09-17T09:30:44.380Z,6.40
2018-09-17T09:33:18.727Z,9.87
2018-09-17T09:35:52.673Z,9.73
2018-09-17T09:38:26.730Z,3.77
2018-09-17T09:41:00.684Z,6.90
2018-09-17T09:43:34.791Z,9.20
2018-09-17T09:46:09.483Z,9.93
2018-09-17T09:48:44.146Z,8.13
2018-09-17T09:51:18.431Z,4.53
2018-09-17T09:53:52.385Z,5.67
2018-09-17T09:56:27.101Z,7.20
2018-09-17T09:59:01.001Z,7.53
2018-09-17T10:01:40.254Z,9.53
2018-09-17T10:04:22.435Z,7.63
2018-09-17T10:06:56.419Z,7.97
2018-09-17T10:09:36.700Z,6.90
2018-09-17T10:12:16.101Z,7.67
2018-09-17T10:14:56.344Z,7.53
2018-09-17T10:17:35.892Z,4.60
2018-09-17T10:20:09.923Z,6.87
2018-09-17T10:22:44.011Z,5.63
2018-09-17T10:25:17.963Z,5.30
2018-09-17T10:27:51.922Z,5.37
2018-09-17T10:30:26.415Z,6.83
2018-09-17T10:33:00.439Z,6.40
2018-09-17T10:35:34.410Z,6.17
2018-09-17T10:38:08.533Z,6.23
2018-09-17T10:40:42.669Z,5.73
2018-09-17T10:43:16.775Z,7.37
2018-09-17T10:45:51.845Z,5.43
2018-09-17T10:48:26.665Z,4.07
2018-09-17T10:51:02.165Z,4.43
2018-09-17T10:53:37.008Z,5.57
2018-09-17T10:56:11.045Z,5.30
2018-09-17T10:58:44.912Z,5.17
2018-09-17T11:01:18.733Z,4.23
2018-09-17T11:03:53.597Z,5.63
2018-09-17T11:06:27.471Z,5.57
2018-09-17T11:09:01.711Z,4.40
2018-09-17T11:11:35.681Z,2.60
2018-09-17T11:14:09.956Z,5.07
2018-09-17T11:16:44.481Z,2.40
2018-09-17T11:19:18.921Z,3.47
2018-09-17T11:21:53.416Z,3.60
2018-09-17T11:24:28.498Z,3.47
2018-09-17T11:27:03.269Z,2.97
2018-09-17T11:29:37.210Z,3.43
2018-09-17T11:32:11.279Z,2.43
2018-09-17T11:34:46.938Z,5.37
2018-09-17T11:37:20.946Z,2.40
2018-09-17T11:39:55.037Z,3.80
2018-09-17T11:42:28.979Z,4.23
2018-09-17T11:45:02.798Z,3.80
2018-09-17T11:47:37.406Z,4.07
2018-09-17T11:50:11.282Z,2.93
2018-09-17T11:52:45.429Z,2.93
2018-09-17T11:55:19.442Z,2.83
2018-09-17T11:57:53.583Z,4.40
2018-09-17T12:00:33.035Z,4.27
2018-09-17T12:03:13.166Z,6.90
2018-09-17T12:05:52.862Z,3.30
2018-09-17T12:08:26.775Z,4.57
2018-09-17T12:11:01.082Z,3.13
2018-09-17T12:13:35.122Z,5.23
2018-09-17T12:16:09.246Z,5.50
2018-09-17T12:18:43.302Z,3.40
2018-09-17T12:21:18.050Z,4.27
2018-09-17T12:23:52.151Z,3.57
2018-09-17T12:26:26.255Z,5.93
2018-09-17T12:29:00.094Z,3.87
2018-09-17T12:31:34.530Z,6.60
2018-09-17T12:34:09.190Z,3.47
2018-09-17T12:36:43.249Z,1.00
2018-09-17T12:39:18.179Z,4.07
2018-09-17T12:41:53.252Z,1.67
2018-09-17T12:44:27.362Z,1.17
2018-09-17T12:47:01.997Z,2.87
2018-09-17T12:49:36.494Z,2.13
2018-09-17T12:52:11.304Z,5.10
2018-09-17T12:54:45.337Z,1.03
2018-09-17T12:57:19.331Z,5.47
2018-09-17T12:59:53.962Z,2.00
2018-09-17T13:02:27.908Z,0.17
2018-09-17T13:05:01.897Z,2.70
2018-09-17T13:07:36.228Z,4.50
2018-09-17T13:10:11.743Z,2.80
2018-09-17T13:12:45.686Z,2.97
2018-09-17T13:15:20.768Z,4.07
2018-09-17T13:17:55.500Z,3.77
2018-09-17T13:20:29.492Z,3.57
2018-09-17T13:23:03.280Z,3.67
2018-09-17T13:25:37.874Z,2.17
2018-09-17T13:28:11.756Z,3.47
2018-09-17T13:30:47.663Z,4.37
2018-09-17T13:33:21.530Z,4.17
2018-09-17T13:35:55.699Z,3.37
2018-09-17T13:38:29.881Z,3.90
2018-09-17T13:41:04.207Z,1.13
2018-09-17T13:43:38.294Z,2.03
2018-09-17T13:46:12.594Z,3.97
2018-09-17T13:48:46.518Z,1.57
2018-09-17T13:51:20.681Z,3.27
2018-09-17T13:53:54.683Z,3.23
2018-09-17T13:56:28.507Z,1.90
2018-09-17T13:59:02.491Z,2.83
2018-09-17T14:01:36.516Z,2.60
2018-09-17T14:04:10.435Z,3.87
2018-09-17T14:06:44.746Z,4.83
2018-09-17T14:09:18.754Z,2.00
2018-09-17T14:11:53.397Z,1.83
2018-09-17T14:14:27.909Z,3.17
2018-09-17T14:17:01.881Z,2.40
2018-09-17T14:19:36.545Z,3.50
2018-09-17T14:22:11.344Z,1.63
2018-09-17T14:24:45.168Z,3.97
2018-09-17T14:27:19.878Z,4.77
2018-09-17T14:29:54.101Z,3.73
2018-09-17T14:32:33.562Z,3.83
2018-09-17T14:35:08.106Z,1.90
2018-09-17T14:37:42.515Z,0.93
2018-09-17T14:40:16.283Z,4.70
2018-09-17T14:42:50.955Z,2.83
2018-09-17T14:45:25.010Z,2.17
2018-09-17T14:47:58.839Z,0.40
2018-09-17T14:50:32.862Z,1.83
2018-09-17T14:53:06.644Z,1.67
2018-09-17T14:55:40.800Z,2.00
2018-09-17T14:58:14.832Z,3.30
2018-09-17T15:00:49.089Z,0.77
2018-09-17T15:03:23.709Z,0.63
2018-09-17T15:05:58.433Z,3.50
2018-09-17T15:08:33.274Z,5.10
2018-09-17T15:11:07.235Z,4.97
2018-09-17T15:13:42.361Z,5.40
2018-09-17T15:16:16.582Z,3.27
2018-09-17T15:18:50.632Z,0.90
2018-09-17T15:21:24.692Z,6.10
2018-09-17T15:23:58.492Z,5.17
2018-09-17T15:26:33.247Z,5.77
2018-09-17T15:29:07.205Z,3.70
2018-09-17T15:31:41.170Z,3.50
2018-09-17T15:34:15.787Z,5.23
2018-09-17T15:36:49.899Z,1.83
2018-09-17T15:39:24.085Z,0.70
2018-09-17T15:41:58.005Z,2.83
2018-09-17T15:44:32.015Z,1.93
2018-09-17T15:47:05.870Z,0.70
2018-09-17T15:49:39.890Z,2.03
2018-09-17T15:52:13.878Z,1.27
2018-09-17T15:54:48.245Z,1.93
2018-09-17T15:57:22.401Z,0.60
2018-09-17T15:59:56.416Z,0.97
2018-09-17T16:02:30.876Z,2.43
2018-09-17T16:05:04.921Z,2.30
2018-09-17T16:07:38.917Z,0.93
2018-09-17T16:10:13.364Z,2.97
2018-09-17T16:12:48.459Z,1.00
2018-09-17T16:15:22.505Z,0.60
2018-09-17T16:17:57.064Z,0.47
2018-09-17T16:20:31.065Z,2.43
2018-09-17T16:23:05.135Z,1.13
2018-09-17T16:25:39.589Z,3.07
2018-09-17T16:28:13.607Z,0.30
2018-09-17T16:30:47.580Z,0.87
2018-09-17T16:33:21.454Z,1.53
2018-09-17T16:35:55.845Z,2.33
2018-09-17T16:38:29.921Z,1.93
2018-09-17T16:41:04.868Z,1.30
2018-09-17T16:43:39.836Z,0.57
2018-09-17T16:46:13.924Z,0.90
2018-09-17T16:48:48.151Z,2.27
2018-09-17T16:51:22.536Z,0.00
2018-09-17T16:53:56.798Z,0.00
2018-09-17T16:56:30.621Z,0.10
2018-09-17T16:59:04.626Z,0.40
2018-09-17T17:01:39.201Z,4.03
2018-09-17T17:04:14.277Z,1.70
2018-09-17T17:06:48.241Z,2.90
2018-09-17T17:09:22.309Z,1.07
2018-09-17T17:11:56.363Z,2.57
2018-09-17T17:14:30.230Z,1.40
2018-09-17T17:17:04.441Z,1.83
2018-09-17T17:19:38.307Z,0.23
2018-09-17T17:22:12.571Z,1.80
2018-09-17T17:24:46.326Z,0.00
2018-09-17T17:27:20.936Z,1.07
2018-09-17T17:29:55.173Z,3.37
2018-09-17T17:32:29.286Z,0.20
2018-09-17T17:35:04.209Z,1.60
2018-09-17T17:37:38.180Z,1.70
2018-09-17T17:40:12.214Z,1.57
2018-09-17T17:42:45.995Z,1.13
2018-09-17T17:45:20.067Z,0.10
2018-09-17T17:47:53.845Z,0.63
2018-09-17T17:50:27.871Z,1.37
2018-09-17T17:53:01.933Z,1.73
2018-09-17T17:55:36.174Z,5.20
2018-09-17T17:58:10.287Z,0.73
2018-09-17T18:00:44.092Z,0.20
2018-09-17T18:03:18.189Z,0.63
2018-09-17T18:05:52.263Z,1.73
2018-09-17T18:08:27.212Z,5.57
2018-09-17T18:11:01.177Z,1.80
2018-09-17T18:13:35.349Z,2.37
2018-09-17T18:16:10.234Z,0.87
2018-09-17T18:18:44.090Z,0.53
2018-09-17T18:21:18.091Z,0.20
2018-09-17T18:23:52.388Z,1.77
2018-09-17T18:26:26.932Z,1.47
2018-09-17T18:29:01.070Z,1.80
2018-09-17T18:31:35.242Z,2.50
2018-09-17T18:34:09.341Z,1.30
2018-09-17T18:36:43.549Z,2.57
2018-09-17T18:39:17.598Z,2.60
2018-09-17T18:41:51.638Z,2.43
2018-09-17T18:44:25.585Z,2.90
2018-09-17T18:47:00.402Z,4.70
2018-09-17T18:49:34.623Z,2.37
2018-09-17T18:52:08.529Z,1.30
2018-09-17T18:54:43.773Z,1.60
2018-09-17T18:57:18.169Z,0.87
2018-09-17T18:59:52.335Z,2.83
2018-09-17T19:02:26.318Z,1.40
2018-09-17T19:05:01.977Z,1.30
2018-09-17T19:07:36.684Z,4.07
2018-09-17T19:10:10.843Z,2.27
2018-09-17T19:12:44.938Z,1.77
2018-09-17T19:15:24.513Z,1.90
2018-09-17T19:18:07.072Z,1.23
2018-09-17T19:20:41.429Z,2.37
2018-09-17T19:23:20.856Z,2.77
2018-09-17T19:25:58.155Z,1.47
2018-09-17T19:28:37.550Z,1.63
2018-09-17T19:31:11.689Z,2.50
2018-09-17T19:33:48.170Z,4.07
2018-09-17T19:36:22.553Z,2.73
2018-09-17T19:39:02.015Z,3.47
2018-09-17T19:41:36.083Z,2.20
2018-09-17T19:44:10.390Z,1.57
2018-09-17T19:46:44.397Z,1.20
2018-09-17T19:49:18.381Z,2.37
2018-09-17T19:51:58.328Z,2.40
2018-09-17T19:54:32.840Z,3.20
2018-09-17T19:57:11.698Z,1.97
2018-09-17T19:59:52.424Z,2.80
2018-09-17T20:02:26.361Z,1.43
2018-09-17T20:05:05.756Z,2.80
2018-09-17T20:07:42.098Z,3.13
2018-09-17T20:10:16.602Z,1.97
2018-09-17T20:12:50.617Z,3.33
2018-09-17T20:15:25.070Z,2.53
2018-09-17T20:17:59.633Z,4.00
2018-09-17T20:20:33.887Z,4.70
2018-09-17T20:23:08.395Z,1.23
2018-09-17T20:25:44.215Z,2.23
2018-09-17T20:28:18.470Z,3.80
2018-09-17T20:30:53.737Z,4.13
2018-09-17T20:33:31.458Z,5.20
2018-09-17T20:36:15.188Z,3.00
2018-09-17T20:38:49.222Z,3.27
2018-09-17T20:41:24.780Z,4.03
2018-09-17T20:47:09.917Z,4.03
2018-09-17T20:49:44.672Z,3.27
2018-09-17T20:52:18.982Z,4.53
2018-09-17T20:54:56.565Z,3.17
2018-09-17T20:57:31.064Z,2.80
2018-09-17T21:00:08.268Z,3.90
2018-09-17T21:02:46.073Z,4.13
2018-09-17T21:05:21.316Z,6.93
2018-09-17T21:07:55.779Z,5.00
2018-09-17T21:10:37.719Z,3.53
2018-09-17T21:13:12.175Z,3.20
2018-09-17T21:15:46.578Z,3.00
2018-09-17T21:18:23.950Z,6.77
2018-09-17T21:20:58.228Z,5.90
2018-09-17T21:23:33.788Z,5.73
2018-09-17T21:26:08.154Z,6.13
2018-09-17T21:28:46.487Z,5.03
2018-09-17T21:31:20.865Z,4.27
2018-09-17T21:33:55.448Z,4.93
2018-09-17T21:36:29.614Z,6.20
2018-09-17T21:39:06.211Z,4.27
2018-09-17T21:41:40.809Z,5.10
2018-09-17T21:44:14.835Z,4.10
2018-09-17T21:46:49.143Z,3.43
2018-09-17T21:49:23.210Z,5.80
2018-09-17T21:51:58.091Z,4.30
2018-09-17T21:54:33.666Z,3.30
2018-09-17T21:57:07.847Z,5.20
2018-09-17T21:59:42.527Z,4.63
2018-09-17T22:02:16.360Z,6.13
2018-09-17T22:04:50.719Z,4.03
2018-09-17T22:07:25.373Z,3.73
2018-09-17T22:09:59.737Z,3.67
2018-09-17T22:12:33.705Z,8.83
2018-09-17T22:15:07.990Z,3.27
2018-09-17T22:17:42.477Z,5.20
2018-09-17T22:20:16.466Z,5.23
2018-09-17T22:22:52.366Z,4.17
2018-09-17T22:28:06.144Z,5.30
2018-09-17T22:30:42.678Z,5.47
2018-09-17T22:33:16.888Z,5.60
2018-09-17T22:35:50.879Z,6.33
2018-09-17T22:38:24.948Z,4.23
2018-09-17T22:40:59.751Z,4.27
2018-09-17T22:43:34.378Z,3.70
2018-09-17T22:46:08.465Z,5.77
2018-09-17T22:48:42.602Z,5.53
2018-09-17T22:51:24.264Z,5.37
2018-09-17T22:53:58.236Z,7.17
2018-09-17T22:56:32.573Z,6.37
2018-09-17T22:59:06.814Z,7.20
2018-09-17T23:01:42.409Z,4.37
2018-09-17T23:04:17.022Z,5.80
2018-09-17T23:06:51.921Z,5.33
2018-09-17T23:09:30.044Z,4.63
2018-09-17T23:12:04.241Z,3.47
2018-09-17T23:17:31.731Z,8.83
2018-09-17T23:22:59.292Z,5.53
2018-09-17T23:25:36.789Z,4.20
2018-09-17T23:28:19.396Z,6.63
2018-09-17T23:33:45.737Z,5.47
2018-09-17T23:36:24.249Z,9.07
2018-09-17T23:38:59.209Z,6.73
2018-09-17T23:41:38.926Z,5.70
2018-09-17T23:44:13.189Z,3.87
2018-09-17T23:46:47.868Z,6.73
2018-09-17T23:49:22.498Z,8.90
2018-09-17T23:51:56.574Z,6.13
2018-09-17T23:54:31.441Z,7.13
2018-09-17T23:57:13.851Z,5.13
2018-09-17T23:59:48.474Z,8.00
